Time;durP1;ratioP1;P1;durP2;ratioP2;P2;SDS_P1;SDS_P2;PMS_P1;PMS_P2;Temp;Humidity;BMP_temperature;BMP_pressure;BME280_temperature;BME280_humidity;BME280_pressure;Samples;Min_cycle;Max_cycle;Signal;HPM_P1;HPM_P2
2024/01/15 00:01:57;;;;;;;9.13;5.00;;;3.10;99.90;;;;;;4975169;28;20239;-60
2024/01/15 00:04:23;;;;;;;7.70;4.90;;;2.80;99.90;;;;;;4975180;28;20236;-59
2024/01/15 00:06:49;;;;;;;8.40;5.33;;;2.80;99.90;;;;;;4975100;28;20181;-59
2024/01/15 00:09:15;;;;;;;7.27;4.63;;;2.90;99.90;;;;;;4974551;28;20169;-60
2024/01/15 00:11:42;;;;;;;6.17;4.50;;;3.00;99.90;;;;;;4974725;28;20173;-59
2024/01/15 00:14:07;;;;;;;5.82;4.25;;;3.10;99.90;;;;;;4974854;28;20181;-59
2024/01/15 00:16:33;;;;;;;7.17;3.80;;;3.10;99.90;;;;;;4974908;28;20220;-59
2024/01/15 00:18:59;;;;;;;5.63;3.90;;;3.10;99.90;;;;;;4974793;28;20650;-59
2024/01/15 00:21:24;;;;;;;6.87;4.07;;;3.20;99.90;;;;;;4974774;28;20244;-59
2024/01/15 00:23:50;;;;;;;9.17;3.17;;;3.20;99.90;;;;;;4974877;28;20623;-59
2024/01/15 00:26:16;;;;;;;5.50;3.37;;;3.20;99.90;;;;;;4974631;28;20212;-59
2024/01/15 00:28:42;;;;;;;6.93;3.37;;;2.90;99.90;;;;;;4974517;28;20188;-59
2024/01/15 00:31:08;;;;;;;7.07;3.33;;;2.80;99.90;;;;;;4974873;28;20172;-60
2024/01/15 00:33:33;;;;;;;7.67;3.87;;;3.10;99.90;;;;;;4974755;28;20177;-59
2024/01/15 00:35:59;;;;;;;5.43;3.40;;;3.10;99.90;;;;;;4974683;28;20198;-60
2024/01/15 00:38:25;;;;;;;4.37;3.10;;;3.10;99.90;;;;;;4974582;28;20181;-60
2024/01/15 00:40:50;;;;;;;6.37;3.10;;;3.10;99.90;;;;;;4974567;28;20189;-59
2024/01/15 00:43:19;;;;;;;6.07;3.23;;;3.00;99.90;;;;;;4974697;28;20530;-60
2024/01/15 00:45:45;;;;;;;4.90;3.10;;;3.00;99.90;;;;;;4974658;28;20195;-60
2024/01/15 00:48:10;;;;;;;5.20;3.70;;;3.00;99.90;;;;;;4974575;28;20192;-59
2024/01/15 00:50:36;;;;;;;5.57;3.53;;;3.10;99.90;;;;;;4974485;28;20169;-59
2024/01/15 00:53:02;;;;;;;4.03;3.17;;;3.00;99.90;;;;;;4974570;28;20181;-59
2024/01/15 00:55:29;;;;;;;7.23;3.37;;;3.00;99.90;;;;;;4974562;28;20224;-59
2024/01/15 00:57:55;;;;;;;3.90;2.85;;;3.00;99.90;;;;;;4974325;28;20249;-61
2024/01/15 01:00:20;;;;;;;5.80;2.88;;;3.00;99.90;;;;;;4974432;28;20221;-59
2024/01/15 01:02:46;;;;;;;5.50;2.83;;;3.00;99.90;;;;;;4974267;28;20185;-60
2024/01/15 01:05:12;;;;;;;5.75;3.00;;;3.00;99.90;;;;;;4974409;28;20188;-59
2024/01/15 01:07:38;;;;;;;7.10;2.70;;;2.90;99.90;;;;;;4974255;28;20623;-60
2024/01/15 01:10:04;;;;;;;4.67;2.90;;;2.90;99.90;;;;;;4974343;28;20196;-59
2024/01/15 01:12:30;;;;;;;5.87;3.00;;;2.80;99.90;;;;;;4974136;28;20721;-60
2024/01/15 01:14:56;;;;;;;5.55;2.75;;;2.80;99.90;;;;;;4974354;28;20208;-60
2024/01/15 01:17:22;;;;;;;5.32;2.75;;;2.60;99.90;;;;;;4974281;28;20192;-60
2024/01/15 01:19:47;;;;;;;5.43;3.50;;;2.60;99.90;;;;;;4974127;28;20658;-60
2024/01/15 01:22:13;;;;;;;5.27;3.10;;;2.60;99.90;;;;;;4976995;28;20189;-59
2024/01/15 01:24:39;;;;;;;4.40;2.90;;;2.60;99.90;;;;;;4977929;28;20182;-59
2024/01/15 01:27:04;;;;;;;5.53;3.70;;;2.60;99.90;;;;;;4977804;28;20182;-60
2024/01/15 01:29:30;;;;;;;5.40;3.30;;;2.70;99.90;;;;;;4977814;28;20181;-59
2024/01/15 01:31:56;;;;;;;5.82;2.90;;;2.70;99.90;;;;;;4978012;28;20533;-59
2024/01/15 01:34:22;;;;;;;5.15;2.50;;;2.80;99.90;;;;;;4977846;28;20177;-59
2024/01/15 01:36:47;;;;;;;3.50;1.90;;;2.90;99.90;;;;;;4977821;28;20657;-59
2024/01/15 01:39:13;;;;;;;4.13;1.27;;;3.20;99.90;;;;;;4977733;28;20189;-60
2024/01/15 01:41:40;;;;;;;4.30;1.52;;;3.30;99.90;;;;;;4977551;28;20622;-59
2024/01/15 01:44:07;;;;;;;2.83;1.40;;;3.40;99.90;;;;;;4977743;28;20200;-59
2024/01/15 01:46:33;;;;;;;4.23;1.20;;;3.50;99.90;;;;;;4977681;28;20243;-59
2024/01/15 01:49:05;;;;;;;4.15;1.08;;;3.50;99.90;;;;;;4977608;28;20205;-59
2024/01/15 01:51:31;;;;;;;5.63;1.10;;;3.40;99.90;;;;;;4977533;28;20265;-59
2024/01/15 01:53:56;;;;;;;3.58;1.45;;;3.40;99.90;;;;;;4977461;28;20257;-60
2024/01/15 01:56:22;;;;;;;5.38;1.10;;;3.40;99.90;;;;;;4977263;28;20291;-59
2024/01/15 01:58:48;;;;;;;3.70;1.13;;;3.40;99.90;;;;;;4977455;28;20173;-59
2024/01/15 02:01:15;;;;;;;4.65;1.70;;;3.40;99.90;;;;;;4977338;28;20643;-59
2024/01/15 02:03:41;;;;;;;5.60;1.77;;;3.40;99.90;;;;;;4977334;28;20615;-60
2024/01/15 02:06:07;;;;;;;3.88;1.40;;;3.30;99.90;;;;;;4977225;28;20231;-60
2024/01/15 02:08:34;;;;;;;6.53;1.30;;;3.30;99.90;;;;;;4977066;28;20177;-63
2024/01/15 02:11:00;;;;;;;4.43;1.20;;;3.30;99.90;;;;;;4977049;28;20268;-60
2024/01/15 02:13:26;;;;;;;4.75;1.10;;;3.40;99.90;;;;;;4977308;28;20292;-60
2024/01/15 02:15:51;;;;;;;5.40;1.20;;;3.30;99.90;;;;;;4976906;28;20202;-59
2024/01/15 02:18:17;;;;;;;2.65;0.80;;;3.30;99.90;;;;;;4977058;28;20284;-59
2024/01/15 02:20:44;;;;;;;3.13;1.30;;;3.20;99.90;;;;;;4976957;28;20223;-61
2024/01/15 02:23:13;;;;;;;4.93;1.20;;;3.30;99.90;;;;;;4976959;28;20170;-59
2024/01/15 02:25:41;;;;;;;6.95;1.33;;;3.20;99.90;;;;;;4982677;28;20582;-59
2024/01/15 02:28:09;;;;;;;4.53;1.33;;;3.20;99.90;;;;;;4996061;28;20187;-59
2024/01/15 02:30:39;;;;;;;5.40;1.30;;;3.20;99.90;;;;;;4996328;28;20184;-59
2024/01/15 02:33:05;;;;;;;3.05;1.23;;;3.20;99.90;;;;;;4995377;28;20177;-59
2024/01/15 02:35:30;;;;;;;3.97;1.17;;;3.20;99.90;;;;;;4996000;28;20656;-60
2024/01/15 02:37:56;;;;;;;5.97;1.55;;;3.30;99.90;;;;;;4995984;28;20191;-59
2024/01/15 02:40:22;;;;;;;4.43;1.43;;;3.30;99.90;;;;;;4996004;28;20201;-60
2024/01/15 02:42:47;;;;;;;4.35;1.30;;;3.30;99.90;;;;;;4996127;28;20173;-60
2024/01/15 02:45:13;;;;;;;5.93;1.23;;;3.20;99.90;;;;;;4996113;28;20204;-59
2024/01/15 02:47:39;;;;;;;3.20;1.20;;;3.10;99.90;;;;;;4995917;28;20176;-59
2024/01/15 02:50:05;;;;;;;3.53;1.50;;;3.10;99.90;;;;;;4995916;28;20561;-59
2024/01/15 02:52:30;;;;;;;2.93;1.70;;;3.20;99.90;;;;;;4996020;28;20673;-59
2024/01/15 02:54:56;;;;;;;3.55;1.65;;;3.10;99.90;;;;;;4995734;28;20180;-59
2024/01/15 02:57:22;;;;;;;3.40;1.55;;;3.10;99.90;;;;;;4995741;28;20196;-59
2024/01/15 02:59:47;;;;;;;3.92;1.88;;;3.10;99.90;;;;;;4995626;28;20181;-59
2024/01/15 03:02:13;;;;;;;5.00;2.30;;;3.00;99.90;;;;;;4995566;28;20181;-59
2024/01/15 03:04:43;;;;;;;10.17;2.60;;;3.00;99.90;;;;;;4995566;28;20247;-58
2024/01/15 03:07:09;;;;;;;4.90;2.42;;;2.90;99.90;;;;;;4995515;28;20254;-59
2024/01/15 03:09:35;;;;;;;3.83;2.67;;;2.90;99.90;;;;;;4995359;28;20204;-60
2024/01/15 03:12:01;;;;;;;5.15;2.97;;;2.80;99.90;;;;;;4995566;28;20180;-60
2024/01/15 03:14:26;;;;;;;7.78;3.08;;;2.80;99.90;;;;;;4995432;28;20237;-60
2024/01/15 03:16:53;;;;;;;7.40;3.47;;;2.80;99.90;;;;;;4995300;28;20313;-60
2024/01/15 03:19:18;;;;;;;8.10;3.13;;;2.80;99.90;;;;;;4995248;28;20188;-59
2024/01/15 03:21:44;;;;;;;3.83;2.70;;;2.80;99.90;;;;;;4995219;28;20272;-59
2024/01/15 03:24:10;;;;;;;6.68;3.30;;;2.80;99.90;;;;;;4995113;28;20169;-58
2024/01/15 03:26:35;;;;;;;4.68;3.22;;;2.90;99.90;;;;;;4995305;28;20235;-59
2024/01/15 03:29:01;;;;;;;4.75;3.78;;;2.80;99.90;;;;;;4995269;28;20249;-60
2024/01/15 03:31:27;;;;;;;5.22;3.05;;;2.70;99.90;;;;;;4995105;28;20177;-59
2024/01/15 03:33:52;;;;;;;6.10;2.90;;;2.70;99.90;;;;;;4995117;28;20194;-59
2024/01/15 03:36:18;;;;;;;6.10;3.35;;;2.70;99.90;;;;;;4994885;28;20204;-59
2024/01/15 03:38:44;;;;;;;4.53;3.10;;;2.70;99.90;;;;;;4993719;28;20188;-59
2024/01/15 03:41:09;;;;;;;5.53;3.70;;;2.70;99.90;;;;;;4995058;28;20181;-59
2024/01/15 03:43:35;;;;;;;6.40;3.87;;;2.70;99.90;;;;;;4994659;28;20244;-59
2024/01/15 03:46:02;;;;;;;5.77;3.60;;;2.60;99.90;;;;;;4993961;28;20675;-59
2024/01/15 03:48:27;;;;;;;6.37;3.70;;;2.60;99.90;;;;;;4994648;28;20268;-60
2024/01/15 03:50:53;;;;;;;4.90;3.80;;;2.50;99.90;;;;;;4994672;28;20266;-60
2024/01/15 03:53:19;;;;;;;5.50;3.40;;;2.50;99.90;;;;;;4994678;28;20180;-60
2024/01/15 03:55:44;;;;;;;4.93;3.40;;;2.50;99.90;;;;;;4994686;28;20220;-59
2024/01/15 03:58:10;;;;;;;7.10;3.20;;;2.40;99.90;;;;;;4994746;28;20176;-59
2024/01/15 04:00:36;;;;;;;5.97;3.80;;;2.30;99.90;;;;;;4994696;28;20225;-60
2024/01/15 04:03:02;;;;;;;6.03;3.60;;;2.40;99.90;;;;;;4994531;28;20184;-60
2024/01/15 04:05:27;;;;;;;5.47;3.30;;;2.30;99.90;;;;;;4994466;28;20177;-59
2024/01/15 04:07:53;;;;;;;4.97;3.37;;;2.30;99.90;;;;;;4994309;28;20174;-59
2024/01/15 04:10:18;;;;;;;7.40;3.50;;;2.20;99.90;;;;;;4994644;28;20176;-59
2024/01/15 04:12:46;;;;;;;6.67;3.37;;;2.30;99.90;;;;;;4994291;28;20282;-59
2024/01/15 04:15:12;;;;;;;7.20;3.47;;;2.20;99.90;;;;;;4994226;28;20181;-60
2024/01/15 04:17:38;;;;;;;7.47;3.30;;;2.00;99.90;;;;;;4994227;28;20222;-59
2024/01/15 04:20:04;;;;;;;6.93;3.63;;;2.00;99.90;;;;;;4994197;28;20180;-59
2024/01/15 04:22:30;;;;;;;7.57;3.33;;;2.00;99.90;;;;;;4994011;28;20518;-59
2024/01/15 04:24:55;;;;;;;7.70;3.37;;;1.90;99.90;;;;;;4994117;28;20174;-60
2024/01/15 04:27:21;;;;;;;7.47;3.33;;;1.90;99.90;;;;;;4994190;28;20260;-60
2024/01/15 04:29:47;;;;;;;6.10;3.50;;;1.90;99.90;;;;;;4994174;28;20210;-59
2024/01/15 04:32:12;;;;;;;5.40;3.30;;;1.90;99.90;;;;;;4994053;28;20704;-60
2024/01/15 04:34:38;;;;;;;4.27;2.90;;;1.90;99.90;;;;;;4994046;28;20260;-59
2024/01/15 04:37:04;;;;;;;6.73;3.60;;;1.80;99.90;;;;;;4993832;28;20208;-60
2024/01/15 04:39:30;;;;;;;5.73;3.30;;;1.80;99.90;;;;;;4994003;28;20186;-59
2024/01/15 04:41:55;;;;;;;5.07;3.17;;;1.80;99.90;;;;;;4993961;28;20170;-59
2024/01/15 04:44:21;;;;;;;10.80;4.37;;;1.80;99.90;;;;;;4993934;28;20693;-59
2024/01/15 04:46:46;;;;;;;7.67;3.63;;;1.80;99.90;;;;;;4994017;28;20531;-59
2024/01/15 04:49:12;;;;;;;4.77;3.33;;;1.90;99.90;;;;;;4993906;28;20188;-59
2024/01/15 04:51:38;;;;;;;7.40;3.67;;;1.80;99.90;;;;;;4993811;28;20204;-59
2024/01/15 04:54:04;;;;;;;5.47;3.70;;;1.90;99.90;;;;;;4993986;28;20178;-59
2024/01/15 04:56:29;;;;;;;8.37;3.37;;;1.90;99.90;;;;;;4995703;28;20213;-60
2024/01/15 04:58:55;;;;;;;7.60;3.07;;;1.90;99.90;;;;;;4998006;28;20219;-59
2024/01/15 05:01:21;;;;;;;6.07;3.10;;;1.90;99.90;;;;;;4997654;28;20559;-60
2024/01/15 05:03:46;;;;;;;5.77;3.00;;;1.90;99.90;;;;;;4997768;28;20184;-60
2024/01/15 05:06:12;;;;;;;6.77;3.07;;;1.90;99.90;;;;;;4997697;28;20690;-59
2024/01/15 05:08:38;;;;;;;8.40;2.90;;;1.80;99.90;;;;;;4997245;28;20208;-60
2024/01/15 05:11:03;;;;;;;5.30;2.67;;;1.90;99.90;;;;;;4997877;28;20279;-59
2024/01/15 05:13:29;;;;;;;8.20;3.13;;;1.80;99.90;;;;;;4997770;28;20264;-60
2024/01/15 05:15:55;;;;;;;7.37;3.00;;;1.80;99.90;;;;;;4997631;28;20687;-60
2024/01/15 05:18:20;;;;;;;6.37;2.50;;;1.80;99.90;;;;;;4997393;28;20184;-60
2024/01/15 05:20:46;;;;;;;7.27;2.50;;;1.90;99.90;;;;;;4997714;28;20207;-60
2024/01/15 05:23:12;;;;;;;5.80;2.67;;;1.90;99.90;;;;;;4997400;28;20610;-60
2024/01/15 05:25:37;;;;;;;5.33;2.87;;;1.90;99.90;;;;;;4997553;28;20207;-60
2024/01/15 05:28:04;;;;;;;6.60;2.57;;;1.90;99.90;;;;;;4995430;28;20180;-60
2024/01/15 05:30:30;;;;;;;6.83;3.20;;;2.00;99.90;;;;;;4977698;28;20184;-60
2024/01/15 05:32:55;;;;;;;8.33;2.47;;;2.00;99.90;;;;;;4977568;28;20252;-60
2024/01/15 05:35:21;;;;;;;5.47;2.43;;;2.00;99.90;;;;;;4975510;28;20189;-59
2024/01/15 05:37:47;;;;;;;5.67;2.33;;;2.00;99.90;;;;;;4976446;28;20236;-59
2024/01/15 05:40:13;;;;;;;5.87;2.10;;;2.10;99.90;;;;;;4977868;28;20185;-61
2024/01/15 05:42:40;;;;;;;5.97;2.40;;;2.10;99.90;;;;;;4977710;28;20186;-59
2024/01/15 05:45:06;;;;;;;5.70;2.20;;;2.10;99.90;;;;;;4977536;28;20619;-60
2024/01/15 05:47:32;;;;;;;6.67;2.40;;;2.10;99.90;;;;;;4977550;28;20169;-59
2024/01/15 05:49:58;;;;;;;5.10;2.03;;;2.20;99.90;;;;;;4977495;28;20559;-59
2024/01/15 05:52:24;;;;;;;5.43;1.87;;;2.20;99.90;;;;;;4977754;28;20264;-60
2024/01/15 05:54:50;;;;;;;6.83;2.53;;;2.20;99.90;;;;;;4977284;28;20686;-59
2024/01/15 05:57:16;;;;;;;5.20;1.83;;;2.10;99.90;;;;;;4977070;28;20204;-59
2024/01/15 05:59:42;;;;;;;7.50;2.23;;;2.20;99.90;;;;;;4978502;28;20177;-58
2024/01/15 06:02:08;;;;;;;8.37;2.20;;;2.10;99.90;;;;;;4996728;28;20177;-59
2024/01/15 06:04:34;;;;;;;6.30;2.00;;;2.00;99.90;;;;;;4996654;28;20183;-60
2024/01/15 06:06:59;;;;;;;5.20;2.10;;;1.90;99.90;;;;;;4996302;28;20181;-60
2024/01/15 06:09:25;;;;;;;7.90;2.23;;;1.80;99.90;;;;;;4995891;28;20177;-59
2024/01/15 06:11:50;;;;;;;8.87;2.70;;;1.80;99.90;;;;;;4996499;28;20180;-59
2024/01/15 06:14:16;;;;;;;3.97;1.83;;;1.80;99.90;;;;;;4996271;28;20184;-59
2024/01/15 06:16:42;;;;;;;5.43;2.00;;;1.90;99.90;;;;;;4996319;28;20216;-59
2024/01/15 06:19:07;;;;;;;6.60;2.37;;;2.00;99.90;;;;;;4996206;28;20188;-58
2024/01/15 06:21:33;;;;;;;5.57;2.00;;;2.00;99.90;;;;;;4996183;28;20221;-59
2024/01/15 06:23:59;;;;;;;7.13;2.27;;;2.00;99.90;;;;;;4996329;28;20181;-59
2024/01/15 06:26:24;;;;;;;8.47;2.67;;;2.10;99.90;;;;;;4996286;28;20193;-59
2024/01/15 06:28:50;;;;;;;6.30;2.60;;;2.10;99.90;;;;;;4996117;28;20264;-59
2024/01/15 06:31:16;;;;;;;6.37;2.73;;;2.20;99.90;;;;;;4996121;28;20177;-59
2024/01/15 06:33:42;;;;;;;9.00;2.93;;;2.20;99.90;;;;;;4995930;28;20184;-59
2024/01/15 06:36:08;;;;;;;8.73;3.23;;;2.10;99.90;;;;;;4978506;28;20209;-59
2024/01/15 06:38:34;;;;;;;6.20;2.53;;;2.10;99.90;;;;;;4995980;28;20195;-60
2024/01/15 06:41:00;;;;;;;5.43;2.40;;;2.20;99.90;;;;;;4996065;28;20249;-59
2024/01/15 06:43:25;;;;;;;5.03;3.00;;;2.30;99.90;;;;;;4995593;28;20592;-58
2024/01/15 06:45:51;;;;;;;6.10;2.87;;;2.30;99.90;;;;;;4986131;28;20179;-60
2024/01/15 06:48:17;;;;;;;6.57;3.43;;;2.30;99.90;;;;;;4993843;28;20181;-60
2024/01/15 06:50:43;;;;;;;7.97;3.17;;;2.40;99.90;;;;;;4995956;28;20183;-58
2024/01/15 06:53:09;;;;;;;7.30;3.10;;;2.40;99.90;;;;;;4995652;28;20223;-60
2024/01/15 06:55:34;;;;;;;5.47;2.43;;;2.40;99.90;;;;;;4975882;28;20656;-60
2024/01/15 06:58:00;;;;;;;7.50;2.70;;;2.50;99.90;;;;;;4983233;28;20528;-59
2024/01/15 07:00:27;;;;;;;5.43;2.80;;;2.50;99.90;;;;;;4995274;28;20222;-60
2024/01/15 07:02:53;;;;;;;4.67;2.70;;;2.50;99.90;;;;;;4995199;28;20183;-59
2024/01/15 07:05:20;;;;;;;9.70;2.90;;;2.50;99.90;;;;;;4995226;28;20724;-59
2024/01/15 07:07:47;;;;;;;7.33;2.80;;;2.50;99.90;;;;;;4995081;28;20208;-59
2024/01/15 07:10:13;;;;;;;7.27;2.80;;;2.50;99.90;;;;;;4976529;28;20177;-60
2024/01/15 07:12:41;;;;;;;13.37;3.37;;;2.60;99.90;;;;;;4965204;28;20188;-60
2024/01/15 07:15:08;;;;;;;8.33;2.83;;;2.70;99.90;;;;;;4994978;28;20211;-59
2024/01/15 07:17:34;;;;;;;5.73;2.70;;;2.70;99.90;;;;;;4987221;28;20190;-60
2024/01/15 07:20:00;;;;;;;5.57;2.70;;;2.70;99.90;;;;;;4975576;28;20185;-59
2024/01/15 07:22:25;;;;;;;6.93;2.78;;;2.80;99.90;;;;;;4975836;28;20549;-59
2024/01/15 07:24:51;;;;;;;8.07;2.80;;;2.80;99.90;;;;;;4975629;28;20182;-60
2024/01/15 07:27:17;;;;;;;5.03;2.30;;;2.80;99.90;;;;;;4975530;28;20192;-59
2024/01/15 07:29:42;;;;;;;9.83;2.67;;;2.90;99.90;;;;;;4975517;28;20219;-59
2024/01/15 07:32:09;;;;;;;8.03;2.30;;;2.90;99.90;;;;;;4975456;28;20185;-59
2024/01/15 07:34:35;;;;;;;8.50;2.10;;;2.90;99.90;;;;;;4975488;28;20283;-59
2024/01/15 07:37:00;;;;;;;10.10;2.00;;;2.90;99.90;;;;;;4974533;28;20802;-59
2024/01/15 07:39:28;;;;;;;5.80;2.13;;;3.00;99.90;;;;;;4975264;28;20554;-59
2024/01/15 07:41:54;;;;;;;5.22;1.92;;;3.00;99.90;;;;;;4975250;28;20217;-59
2024/01/15 07:44:20;;;;;;;8.30;1.98;;;3.10;99.90;;;;;;4974645;28;20638;-59
2024/01/15 07:46:46;;;;;;;9.53;1.90;;;3.10;99.90;;;;;;4975052;28;20186;-59
2024/01/15 07:49:12;;;;;;;6.50;1.73;;;3.10;99.90;;;;;;4975095;28;20173;-58
2024/01/15 07:51:38;;;;;;;7.23;1.90;;;3.10;99.90;;;;;;4975194;28;20646;-59
2024/01/15 07:54:03;;;;;;;7.37;1.87;;;3.10;99.90;;;;;;4975113;28;20190;-59
2024/01/15 07:56:29;;;;;;;6.13;1.60;;;3.10;99.90;;;;;;4975033;28;20232;-59
2024/01/15 07:58:56;;;;;;;5.20;1.97;;;3.20;99.90;;;;;;4974909;28;20203;-59
2024/01/15 08:01:22;;;;;;;4.87;2.00;;;3.20;99.90;;;;;;4974553;28;20283;-59
2024/01/15 08:03:48;;;;;;;7.40;2.33;;;3.20;99.90;;;;;;4974979;28;20503;-60
2024/01/15 08:06:13;;;;;;;4.97;2.10;;;3.20;99.90;;;;;;4973290;28;20662;-59
2024/01/15 08:08:39;;;;;;;7.83;1.77;;;3.20;99.90;;;;;;4974245;28;20188;-59
2024/01/15 08:11:05;;;;;;;4.20;1.30;;;3.30;99.90;;;;;;4974358;28;20188;-60
2024/01/15 08:13:31;;;;;;;6.03;1.90;;;3.40;99.90;;;;;;4974870;28;20181;-59
2024/01/15 08:15:56;;;;;;;5.63;1.70;;;3.30;99.90;;;;;;4974490;28;20205;-60
2024/01/15 08:18:22;;;;;;;5.33;1.60;;;3.30;99.90;;;;;;4974719;28;20607;-59
2024/01/15 08:20:48;;;;;;;5.83;1.90;;;3.40;99.90;;;;;;4974900;28;20182;-59
2024/01/15 08:23:13;;;;;;;5.87;1.80;;;3.50;99.90;;;;;;4974786;28;20185;-59
2024/01/15 08:25:39;;;;;;;5.37;1.80;;;3.50;99.90;;;;;;4974712;28;20220;-59
2024/01/15 08:28:05;;;;;;;7.00;1.93;;;3.50;99.90;;;;;;4974980;28;20181;-59
2024/01/15 08:30:31;;;;;;;7.07;1.50;;;3.50;99.90;;;;;;4973938;28;20547;-59
2024/01/15 08:32:57;;;;;;;3.20;1.53;;;3.50;99.90;;;;;;4974770;28;20186;-59
2024/01/15 08:35:23;;;;;;;3.33;1.43;;;3.50;99.90;;;;;;4974658;28;20434;-60
2024/01/15 08:37:52;;;;;;;3.90;1.37;;;3.40;99.90;;;;;;4974455;28;20603;-59
2024/01/15 08:40:18;;;;;;;7.57;1.70;;;3.50;99.90;;;;;;4974512;28;20264;-60
2024/01/15 08:42:45;;;;;;;5.87;1.80;;;3.50;99.90;;;;;;4974432;28;20698;-59
2024/01/15 08:45:11;;;;;;;8.02;1.92;;;3.50;99.90;;;;;;4974295;28;20279;-58
2024/01/15 08:47:37;;;;;;;6.40;2.57;;;3.50;99.90;;;;;;4974783;28;20255;-59
2024/01/15 08:50:04;;;;;;;6.43;1.97;;;3.50;99.90;;;;;;4974535;28;20196;-59
2024/01/15 08:52:29;;;;;;;9.03;2.77;;;3.40;99.90;;;;;;4974548;28;20173;-59
2024/01/15 08:54:58;;;;;;;4.77;1.90;;;3.30;99.90;;;;;;4974349;28;20519;-59
2024/01/15 08:57:24;;;;;;;7.70;2.10;;;3.20;99.90;;;;;;4974292;28;20218;-59
2024/01/15 08:59:51;;;;;;;7.65;2.30;;;3.20;99.90;;;;;;4974161;28;20189;-59
2024/01/15 09:02:16;;;;;;;8.07;2.17;;;3.20;99.90;;;;;;4974517;28;20349;-61
2024/01/15 09:04:42;;;;;;;8.18;2.22;;;3.20;99.90;;;;;;4974383;28;20287;-59
2024/01/15 09:07:08;;;;;;;8.17;2.43;;;3.20;99.90;;;;;;4974376;28;20188;-60
2024/01/15 09:09:34;;;;;;;5.87;1.97;;;3.20;99.90;;;;;;4974340;28;20181;-59
2024/01/15 09:12:00;;;;;;;9.17;2.40;;;3.20;99.90;;;;;;4974582;28;20189;-59
2024/01/15 09:14:26;;;;;;;7.03;2.13;;;3.30;99.90;;;;;;4973787;28;20626;-59
2024/01/15 09:16:53;;;;;;;5.65;2.40;;;3.40;99.90;;;;;;4974212;28;20220;-59
2024/01/15 09:19:19;;;;;;;5.27;1.90;;;3.40;99.90;;;;;;4974037;28;20666;-59
2024/01/15 09:21:45;;;;;;;6.47;2.27;;;3.40;99.90;;;;;;4974258;28;20201;-59
2024/01/15 09:24:11;;;;;;;6.07;1.83;;;3.60;99.90;;;;;;4974065;28;20193;-60
2024/01/15 09:26:36;;;;;;;6.43;1.97;;;3.60;99.90;;;;;;4972859;28;20189;-60
2024/01/15 09:29:02;;;;;;;4.75;2.15;;;3.60;99.90;;;;;;4973954;28;20178;-59
2024/01/15 09:31:28;;;;;;;6.82;1.80;;;3.50;99.90;;;;;;4973273;28;20181;-59
2024/01/15 09:33:59;;;;;;;7.97;2.07;;;3.60;99.90;;;;;;4967548;28;20273;-59
2024/01/15 09:36:25;;;;;;;5.95;2.40;;;3.70;99.90;;;;;;4954532;28;20225;-59
2024/01/15 09:38:51;;;;;;;5.05;1.98;;;3.70;99.90;;;;;;4954465;28;20246;-59
2024/01/15 09:41:17;;;;;;;7.22;2.45;;;3.70;99.90;;;;;;4954382;28;20182;-59
2024/01/15 09:43:43;;;;;;;6.07;1.98;;;3.80;99.90;;;;;;4957496;28;20186;-59
2024/01/15 09:46:09;;;;;;;5.33;1.80;;;3.80;99.90;;;;;;4957924;28;20213;-60
2024/01/15 09:48:35;;;;;;;6.23;2.10;;;3.80;99.90;;;;;;4957982;28;20554;-59
2024/01/15 09:51:05;;;;;;;4.30;1.70;;;3.80;99.90;;;;;;4958030;28;20182;-60
2024/01/15 09:53:31;;;;;;;5.90;2.17;;;3.90;99.90;;;;;;4957735;28;20181;-60
2024/01/15 09:55:58;;;;;;;6.73;1.70;;;3.80;99.90;;;;;;4957648;28;20240;-60
2024/01/15 09:58:24;;;;;;;8.13;1.95;;;4.00;99.90;;;;;;4957573;28;20183;-60
2024/01/15 10:00:51;;;;;;;7.73;1.50;;;4.00;99.90;;;;;;4978549;28;20233;-58
2024/01/15 10:03:17;;;;;;;4.78;1.42;;;4.00;99.90;;;;;;4996233;28;20548;-57
2024/01/15 10:05:43;;;;;;;7.15;1.50;;;4.10;99.90;;;;;;4978907;28;20184;-58
2024/01/15 10:08:10;;;;;;;6.95;2.13;;;4.20;99.90;;;;;;4996355;28;20239;-58
2024/01/15 10:10:37;;;;;;;7.55;1.73;;;4.30;99.90;;;;;;4996324;28;20585;-58
2024/01/15 10:13:04;;;;;;;5.10;1.70;;;4.50;99.90;;;;;;4996143;28;20199;-58
2024/01/15 10:15:33;;;;;;;5.75;2.05;;;4.40;99.90;;;;;;4996175;28;20195;-58
2024/01/15 10:17:59;;;;;;;4.75;1.48;;;4.40;99.90;;;;;;4996336;28;20220;-58
2024/01/15 10:20:25;;;;;;;6.97;1.60;;;4.50;99.90;;;;;;4996262;28;20582;-58
2024/01/15 10:22:50;;;;;;;4.80;1.50;;;4.70;99.90;;;;;;4996182;28;20185;-58
2024/01/15 10:25:22;;;;;;;6.78;1.75;;;4.70;99.90;;;;;;4996208;28;20183;-59
2024/01/15 10:28:03;;;;;;;4.28;1.58;;;4.80;99.90;;;;;;4996009;28;20673;-58
2024/01/15 10:30:28;;;;;;;6.20;1.73;;;4.70;99.90;;;;;;4986863;28;20550;-61
2024/01/15 10:33:01;;;;;;;4.25;1.55;;;4.70;99.90;;;;;;4976067;28;20189;-59
2024/01/15 10:35:31;;;;;;;4.53;1.40;;;4.80;99.90;;;;;;4982871;28;20181;-58
2024/01/15 10:37:58;;;;;;;8.82;2.03;;;5.00;99.90;;;;;;4995371;28;20176;-58
2024/01/15 10:40:24;;;;;;;5.22;1.42;;;5.00;99.90;;;;;;4996187;28;20180;-57
2024/01/15 10:42:50;;;;;;;5.13;1.70;;;5.00;99.90;;;;;;4995917;28;20183;-58
2024/01/15 10:45:15;;;;;;;4.95;1.20;;;5.20;99.90;;;;;;4995701;28;20184;-58
2024/01/15 10:47:42;;;;;;;5.50;1.73;;;5.20;99.90;;;;;;4995438;28;20604;-57
2024/01/15 10:50:10;;;;;;;6.28;1.65;;;5.00;99.90;;;;;;4995448;28;20267;-57
2024/01/15 10:52:36;;;;;;;4.82;1.50;;;5.00;99.90;;;;;;4995613;28;20670;-58
2024/01/15 10:55:04;;;;;;;5.45;1.48;;;4.90;99.90;;;;;;4995351;28;20231;-60
2024/01/15 10:57:30;;;;;;;4.68;1.30;;;4.90;99.90;;;;;;4995072;28;20212;-59
2024/01/15 10:59:56;;;;;;;6.72;1.98;;;5.00;99.90;;;;;;4995708;28;20609;-60
2024/01/15 11:02:22;;;;;;;4.90;1.30;;;5.10;99.90;;;;;;4995605;28;20235;-59
2024/01/15 11:04:48;;;;;;;4.53;1.58;;;5.20;99.90;;;;;;4995441;28;20215;-60
2024/01/15 11:07:14;;;;;;;6.80;1.30;;;5.20;99.90;;;;;;4995372;28;20211;-60
2024/01/15 11:09:39;;;;;;;5.53;1.50;;;5.30;99.90;;;;;;4995641;28;20176;-59
2024/01/15 11:12:13;;;;;;;4.38;1.60;;;5.30;99.90;;;;;;4995363;28;20185;-59
2024/01/15 11:14:40;;;;;;;6.15;1.63;;;5.40;99.90;;;;;;4995326;28;20219;-59
2024/01/15 11:17:06;;;;;;;5.15;1.60;;;5.40;99.90;;;;;;4995254;28;20215;-60
2024/01/15 11:19:42;;;;;;;6.65;1.52;;;5.50;99.90;;;;;;4995174;28;20319;-60
2024/01/15 11:22:09;;;;;;;6.30;1.70;;;5.60;99.90;;;;;;4995503;28;20664;-59
2024/01/15 11:24:41;;;;;;;5.82;1.25;;;5.50;99.90;;;;;;4995331;28;20215;-59
2024/01/15 11:27:08;;;;;;;3.45;1.48;;;5.40;99.90;;;;;;4995201;28;20239;-59
2024/01/15 11:29:35;;;;;;;2.90;1.23;;;5.50;99.90;;;;;;4995084;28;20183;-60
2024/01/15 11:32:04;;;;;;;6.00;1.85;;;5.40;99.90;;;;;;4994994;28;20661;-59
2024/01/15 11:34:51;;;;;;;4.57;1.52;;;5.50;99.90;;;;;;4995189;28;20521;-60
2024/01/15 11:37:18;;;;;;;7.75;1.83;;;5.40;99.90;;;;;;4994930;28;20212;-60
2024/01/15 11:39:45;;;;;;;4.40;1.40;;;5.40;99.90;;;;;;4994913;28;20183;-60
2024/01/15 11:42:11;;;;;;;5.03;1.92;;;5.40;99.90;;;;;;4994746;28;20760;-60
2024/01/15 11:44:38;;;;;;;7.88;1.83;;;5.40;99.90;;;;;;4994714;28;20177;-60
2024/01/15 11:47:09;;;;;;;5.25;1.52;;;5.40;99.90;;;;;;4994558;28;20295;-60
2024/01/15 11:50:05;;;;;;;5.55;1.83;;;5.40;99.90;;;;;;4994836;28;20254;-60
2024/01/15 11:52:37;;;;;;;5.25;1.65;;;5.50;99.90;;;;;;4994650;28;20185;-60
2024/01/15 11:55:22;;;;;;;5.20;1.35;;;5.40;99.90;;;;;;4994622;28;20258;-60
2024/01/15 11:57:54;;;;;;;8.45;1.58;;;5.40;99.90;;;;;;4994472;28;20536;-60
2024/01/15 12:00:20;;;;;;;8.55;1.65;;;5.30;99.90;;;;;;4994568;28;20259;-60
2024/01/15 12:02:47;;;;;;;4.22;1.65;;;5.40;99.90;;;;;;4993816;28;20172;-60
2024/01/15 12:05:15;;;;;;;4.38;1.25;;;5.30;99.90;;;;;;4993713;28;20184;-60
2024/01/15 12:07:43;;;;;;;4.10;1.25;;;5.50;99.90;;;;;;4993980;28;20271;-60
2024/01/15 12:10:13;;;;;;;4.30;1.70;;;5.60;99.90;;;;;;4994444;28;20204;-59
2024/01/15 12:13:04;;;;;;;4.82;1.60;;;5.70;99.90;;;;;;4990606;28;20276;-60
2024/01/15 12:15:30;;;;;;;5.03;1.30;;;6.00;99.90;;;;;;4976541;28;20177;-59
2024/01/15 12:17:57;;;;;;;6.00;1.77;;;5.90;99.90;;;;;;4974697;28;20182;-59
2024/01/15 12:20:24;;;;;;;7.47;2.13;;;5.60;99.90;;;;;;4974433;28;20181;-59
2024/01/15 12:22:50;;;;;;;6.63;1.73;;;5.10;99.90;;;;;;4982863;28;20220;-59
2024/01/15 12:25:15;;;;;;;6.28;1.92;;;4.60;99.90;;;;;;4993946;28;20180;-59
2024/01/15 12:27:41;;;;;;;4.63;1.40;;;4.60;99.90;;;;;;4993645;28;20212;-59
2024/01/15 12:30:10;;;;;;;6.72;1.88;;;4.70;99.90;;;;;;4994030;28;20183;-59
2024/01/15 12:32:36;;;;;;;10.18;2.15;;;4.90;99.90;;;;;;4993678;28;20187;-59
2024/01/15 12:35:02;;;;;;;9.52;2.13;;;5.00;99.90;;;;;;4993887;28;20181;-59
2024/01/15 12:37:29;;;;;;;6.40;2.20;;;5.20;99.90;;;;;;4993852;28;20728;-59
2024/01/15 12:39:55;;;;;;;5.25;1.35;;;5.20;99.90;;;;;;4994018;28;20184;-59
2024/01/15 12:42:21;;;;;;;3.33;0.90;;;4.80;99.90;;;;;;4993693;28;20196;-59
2024/01/15 12:44:47;;;;;;;5.80;0.90;;;3.40;99.90;;;;;;4993705;28;20184;-59
2024/01/15 12:47:14;;;;;;;0.80;0.40;;;2.70;99.90;;;;;;4993497;28;20192;-59
2024/01/15 12:49:40;;;;;;;1.20;0.40;;;2.30;99.90;;;;;;4993759;28;20585;-59
2024/01/15 12:52:09;;;;;;;0.90;0.50;;;2.20;99.90;;;;;;4993659;28;20303;-59
2024/01/15 12:54:35;;;;;;;2.17;0.80;;;2.30;99.90;;;;;;4993658;28;20180;-59